sensor_id;sensor_type;location;lat;lon;timestamp;P1;durP1;ratioP1;P2;durP2;ratioP2
55220;SDS011;41089;51.448;6.604;2023-02-28T00:04:03;7.93;;;4.90;;
55220;SDS011;41089;51.448;6.604;2023-02-28T00:10:06;11.00;;;5.05;;
55220;SDS011;41089;51.448;6.604;2023-02-28T00:16:11;9.65;;;5.28;;
55220;SDS011;41089;51.448;6.604;2023-02-28T00:22:14;11.30;;;6.15;;
55220;SDS011;41089;51.448;6.604;2023-02-28T00:28:15;19.60;;;12.90;;
55220;SDS011;41089;51.448;6.604;2023-02-28T00:34:16;13.63;;;8.13;;
55220;SDS011;41089;51.448;6.604;2023-02-28T00:40:16;8.33;;;5.53;;
55220;SDS011;41089;51.448;6.604;2023-02-28T00:46:18;11.52;;;5.35;;
55220;SDS011;41089;51.448;6.604;2023-02-28T00:52:19;17.02;;;7.82;;
55220;SDS011;41089;51.448;6.604;2023-02-28T00:58:19;12.65;;;6.22;;
55220;SDS011;41089;51.448;6.604;2023-02-28T01:04:21;13.48;;;8.38;;
55220;SDS011;41089;51.448;6.604;2023-02-28T01:10:22;7.25;;;5.38;;
55220;SDS011;41089;51.448;6.604;2023-02-28T01:16:23;6.15;;;4.40;;
55220;SDS011;41089;51.448;6.604;2023-02-28T01:22:24;7.22;;;4.03;;
55220;SDS011;41089;51.448;6.604;2023-02-28T01:28:25;5.13;;;4.03;;
55220;SDS011;41089;51.448;6.604;2023-02-28T01:34:25;12.13;;;3.08;;
55220;SDS011;41089;51.448;6.604;2023-02-28T01:40:26;6.65;;;3.60;;
55220;SDS011;41089;51.448;6.604;2023-02-28T01:46:26;8.37;;;3.93;;
55220;SDS011;41089;51.448;6.604;2023-02-28T01:52:27;6.65;;;3.53;;
55220;SDS011;41089;51.448;6.604;2023-02-28T01:58:28;4.95;;;3.58;;
55220;SDS011;41089;51.448;6.604;2023-02-28T02:04:32;4.90;;;3.20;;
55220;SDS011;41089;51.448;6.604;2023-02-28T02:10:47;7.22;;;3.25;;
55220;SDS011;41089;51.448;6.604;2023-02-28T02:24:12;6.13;;;3.15;;
55220;SDS011;41089;51.448;6.604;2023-02-28T02:36:51;5.00;;;3.25;;
55220;SDS011;41089;51.448;6.604;2023-02-28T02:43:04;5.22;;;3.47;;
55220;SDS011;41089;51.448;6.604;2023-02-28T02:49:09;5.30;;;3.67;;
55220;SDS011;41089;51.448;6.604;2023-02-28T02:55:13;6.35;;;3.35;;
55220;SDS011;41089;51.448;6.604;2023-02-28T03:01:16;6.18;;;3.25;;
55220;SDS011;41089;51.448;6.604;2023-02-28T03:07:27;4.93;;;3.63;;
55220;SDS011;41089;51.448;6.604;2023-02-28T03:39:47;5.97;;;4.07;;
55220;SDS011;41089;51.448;6.604;2023-02-28T03:46:00;5.35;;;3.50;;
55220;SDS011;41089;51.448;6.604;2023-02-28T03:52:06;7.28;;;3.90;;
55220;SDS011;41089;51.448;6.604;2023-02-28T04:04:49;6.10;;;4.07;;
55220;SDS011;41089;51.448;6.604;2023-02-28T04:10:56;9.18;;;4.78;;
55220;SDS011;41089;51.448;6.604;2023-02-28T04:17:03;8.88;;;3.92;;
55220;SDS011;41089;51.448;6.604;2023-02-28T04:23:04;8.57;;;4.20;;
55220;SDS011;41089;51.448;6.604;2023-02-28T04:29:04;6.82;;;3.92;;
55220;SDS011;41089;51.448;6.604;2023-02-28T04:35:06;8.23;;;4.22;;
55220;SDS011;41089;51.448;6.604;2023-02-28T04:41:09;5.35;;;3.85;;
55220;SDS011;41089;51.448;6.604;2023-02-28T04:47:09;10.43;;;4.32;;
55220;SDS011;41089;51.448;6.604;2023-02-28T04:53:20;5.72;;;3.78;;
55220;SDS011;41089;51.448;6.604;2023-02-28T04:59:21;7.40;;;3.83;;
55220;SDS011;41089;51.448;6.604;2023-02-28T05:05:21;8.90;;;3.77;;
55220;SDS011;41089;51.448;6.604;2023-02-28T05:11:24;6.13;;;3.70;;
55220;SDS011;41089;51.448;6.604;2023-02-28T05:17:26;7.15;;;3.67;;
55220;SDS011;41089;51.448;6.604;2023-02-28T05:23:28;6.38;;;3.75;;
55220;SDS011;41089;51.448;6.604;2023-02-28T05:29:35;7.53;;;5.00;;
55220;SDS011;41089;51.448;6.604;2023-02-28T05:35:41;5.07;;;3.20;;
55220;SDS011;41089;51.448;6.604;2023-02-28T05:41:46;8.27;;;3.97;;
55220;SDS011;41089;51.448;6.604;2023-02-28T05:47:49;4.68;;;3.42;;
55220;SDS011;41089;51.448;6.604;2023-02-28T05:53:53;4.43;;;3.28;;
55220;SDS011;41089;51.448;6.604;2023-02-28T05:59:54;5.07;;;3.00;;
55220;SDS011;41089;51.448;6.604;2023-02-28T06:05:54;3.97;;;2.80;;
55220;SDS011;41089;51.448;6.604;2023-02-28T06:11:57;5.30;;;3.33;;
55220;SDS011;41089;51.448;6.604;2023-02-28T06:17:58;7.50;;;3.20;;
55220;SDS011;41089;51.448;6.604;2023-02-28T06:23:59;3.72;;;2.13;;
55220;SDS011;41089;51.448;6.604;2023-02-28T06:30:00;4.75;;;2.65;;
55220;SDS011;41089;51.448;6.604;2023-02-28T06:36:02;4.68;;;2.78;;
55220;SDS011;41089;51.448;6.604;2023-02-28T06:42:03;5.85;;;3.97;;
55220;SDS011;41089;51.448;6.604;2023-02-28T06:48:11;4.53;;;2.78;;
55220;SDS011;41089;51.448;6.604;2023-02-28T06:54:12;5.63;;;3.33;;
55220;SDS011;41089;51.448;6.604;2023-02-28T07:00:13;18.40;;;9.20;;
55220;SDS011;41089;51.448;6.604;2023-02-28T07:06:15;10.73;;;6.43;;
55220;SDS011;41089;51.448;6.604;2023-02-28T07:12:18;6.70;;;5.38;;
55220;SDS011;41089;51.448;6.604;2023-02-28T07:18:20;7.18;;;4.55;;
55220;SDS011;41089;51.448;6.604;2023-02-28T07:24:20;6.22;;;4.03;;
55220;SDS011;41089;51.448;6.604;2023-02-28T07:30:23;7.93;;;4.47;;
55220;SDS011;41089;51.448;6.604;2023-02-28T07:36:27;5.68;;;4.00;;
55220;SDS011;41089;51.448;6.604;2023-02-28T07:42:27;9.20;;;3.97;;
55220;SDS011;41089;51.448;6.604;2023-02-28T07:48:29;7.78;;;3.90;;
55220;SDS011;41089;51.448;6.604;2023-02-28T07:54:29;9.02;;;4.65;;
55220;SDS011;41089;51.448;6.604;2023-02-28T08:00:30;11.48;;;3.55;;
55220;SDS011;41089;51.448;6.604;2023-02-28T08:06:31;4.32;;;3.03;;
55220;SDS011;41089;51.448;6.604;2023-02-28T08:12:32;5.60;;;4.07;;
55220;SDS011;41089;51.448;6.604;2023-02-28T08:18:32;10.00;;;4.75;;
55220;SDS011;41089;51.448;6.604;2023-02-28T08:30:41;4.72;;;3.15;;
55220;SDS011;41089;51.448;6.604;2023-02-28T08:36:42;7.23;;;3.67;;
55220;SDS011;41089;51.448;6.604;2023-02-28T08:42:49;4.82;;;3.40;;
55220;SDS011;41089;51.448;6.604;2023-02-28T08:48:54;10.43;;;3.42;;
55220;SDS011;41089;51.448;6.604;2023-02-28T08:54:55;5.90;;;3.03;;
55220;SDS011;41089;51.448;6.604;2023-02-28T09:00:56;8.43;;;2.92;;
55220;SDS011;41089;51.448;6.604;2023-02-28T09:06:59;5.60;;;3.00;;
55220;SDS011;41089;51.448;6.604;2023-02-28T09:13:00;9.48;;;2.40;;
55220;SDS011;41089;51.448;6.604;2023-02-28T09:19:05;5.80;;;2.85;;
55220;SDS011;41089;51.448;6.604;2023-02-28T09:25:06;9.13;;;5.45;;
55220;SDS011;41089;51.448;6.604;2023-02-28T09:31:11;11.27;;;6.82;;
55220;SDS011;41089;51.448;6.604;2023-02-28T09:37:16;5.15;;;2.78;;
55220;SDS011;41089;51.448;6.604;2023-02-28T09:43:17;4.65;;;3.85;;
55220;SDS011;41089;51.448;6.604;2023-02-28T09:49:22;10.40;;;6.00;;
55220;SDS011;41089;51.448;6.604;2023-02-28T10:01:37;7.85;;;4.90;;
55220;SDS011;41089;51.448;6.604;2023-02-28T10:07:59;10.20;;;4.80;;
55220;SDS011;41089;51.448;6.604;2023-02-28T10:20:22;2.45;;;1.70;;
55220;SDS011;41089;51.448;6.604;2023-02-28T10:26:30;2.60;;;1.67;;
55220;SDS011;41089;51.448;6.604;2023-02-28T10:32:32;2.22;;;1.55;;
55220;SDS011;41089;51.448;6.604;2023-02-28T10:38:40;2.50;;;2.10;;
55220;SDS011;41089;51.448;6.604;2023-02-28T10:44:41;1.48;;;1.35;;
55220;SDS011;41089;51.448;6.604;2023-02-28T10:50:51;6.03;;;1.80;;
55220;SDS011;41089;51.448;6.604;2023-02-28T10:57:13;1.98;;;1.67;;
55220;SDS011;41089;51.448;6.604;2023-02-28T11:03:29;14.15;;;8.32;;
55220;SDS011;41089;51.448;6.604;2023-02-28T11:09:35;3.28;;;1.92;;
55220;SDS011;41089;51.448;6.604;2023-02-28T11:15:39;4.40;;;2.30;;
55220;SDS011;41089;51.448;6.604;2023-02-28T11:21:40;4.20;;;2.72;;
55220;SDS011;41089;51.448;6.604;2023-02-28T11:27:56;5.70;;;2.58;;
55220;SDS011;41089;51.448;6.604;2023-02-28T11:34:26;3.00;;;2.38;;
55220;SDS011;41089;51.448;6.604;2023-02-28T11:40:34;3.40;;;2.08;;
55220;SDS011;41089;51.448;6.604;2023-02-28T11:46:51;3.55;;;1.75;;
55220;SDS011;41089;51.448;6.604;2023-02-28T11:52:59;4.35;;;2.25;;
55220;SDS011;41089;51.448;6.604;2023-02-28T12:17:36;2.72;;;2.00;;
55220;SDS011;41089;51.448;6.604;2023-02-28T12:24:10;3.80;;;2.30;;
55220;SDS011;41089;51.448;6.604;2023-02-28T12:30:19;2.25;;;2.00;;
55220;SDS011;41089;51.448;6.604;2023-02-28T12:36:25;2.78;;;2.22;;
55220;SDS011;41089;51.448;6.604;2023-02-28T12:42:28;2.85;;;1.92;;
55220;SDS011;41089;51.448;6.604;2023-02-28T13:13:49;2.50;;;2.15;;
55220;SDS011;41089;51.448;6.604;2023-02-28T13:19:58;3.45;;;1.95;;
55220;SDS011;41089;51.448;6.604;2023-02-28T13:25:59;2.53;;;1.73;;
55220;SDS011;41089;51.448;6.604;2023-02-28T13:38:15;2.28;;;1.98;;
55220;SDS011;41089;51.448;6.604;2023-02-28T13:44:19;3.80;;;2.22;;
55220;SDS011;41089;51.448;6.604;2023-02-28T13:50:29;2.90;;;2.28;;
55220;SDS011;41089;51.448;6.604;2023-02-28T13:56:35;2.55;;;2.35;;
55220;SDS011;41089;51.448;6.604;2023-02-28T14:21:31;7.60;;;4.95;;
55220;SDS011;41089;51.448;6.604;2023-02-28T14:40:27;5.20;;;2.50;;
55220;SDS011;41089;51.448;6.604;2023-02-28T14:46:35;5.43;;;2.50;;
55220;SDS011;41089;51.448;6.604;2023-02-28T14:52:37;4.20;;;2.30;;
55220;SDS011;41089;51.448;6.604;2023-02-28T14:58:39;6.38;;;2.70;;
55220;SDS011;41089;51.448;6.604;2023-02-28T15:04:40;2.33;;;2.13;;
55220;SDS011;41089;51.448;6.604;2023-02-28T15:10:50;3.28;;;2.70;;
55220;SDS011;41089;51.448;6.604;2023-02-28T15:17:04;6.93;;;4.50;;
55220;SDS011;41089;51.448;6.604;2023-02-28T15:23:10;24.52;;;12.30;;
55220;SDS011;41089;51.448;6.604;2023-02-28T15:29:15;4.63;;;3.40;;
55220;SDS011;41089;51.448;6.604;2023-02-28T15:41:27;5.20;;;3.70;;
55220;SDS011;41089;51.448;6.604;2023-02-28T15:47:29;7.68;;;3.38;;
55220;SDS011;41089;51.448;6.604;2023-02-28T15:53:33;5.38;;;2.92;;
55220;SDS011;41089;51.448;6.604;2023-02-28T15:59:42;6.38;;;2.65;;
55220;SDS011;41089;51.448;6.604;2023-02-28T16:06:07;4.55;;;3.10;;
55220;SDS011;41089;51.448;6.604;2023-02-28T16:12:08;5.43;;;2.85;;
55220;SDS011;41089;51.448;6.604;2023-02-28T16:18:13;5.47;;;2.60;;
55220;SDS011;41089;51.448;6.604;2023-02-28T16:24:14;8.40;;;5.67;;
55220;SDS011;41089;51.448;6.604;2023-02-28T16:30:23;7.90;;;4.32;;
55220;SDS011;41089;51.448;6.604;2023-02-28T16:36:24;5.72;;;3.42;;
55220;SDS011;41089;51.448;6.604;2023-02-28T16:42:26;6.60;;;3.90;;
55220;SDS011;41089;51.448;6.604;2023-02-28T16:48:27;6.95;;;4.25;;
55220;SDS011;41089;51.448;6.604;2023-02-28T16:54:28;6.20;;;4.35;;
55220;SDS011;41089;51.448;6.604;2023-02-28T17:00:31;6.20;;;4.90;;
55220;SDS011;41089;51.448;6.604;2023-02-28T17:06:32;10.80;;;6.75;;
55220;SDS011;41089;51.448;6.604;2023-02-28T17:12:32;15.57;;;10.10;;
55220;SDS011;41089;51.448;6.604;2023-02-28T17:18:32;10.80;;;7.53;;
55220;SDS011;41089;51.448;6.604;2023-02-28T17:24:34;12.93;;;6.22;;
55220;SDS011;41089;51.448;6.604;2023-02-28T17:30:35;8.80;;;6.47;;
55220;SDS011;41089;51.448;6.604;2023-02-28T17:36:35;7.53;;;5.18;;
55220;SDS011;41089;51.448;6.604;2023-02-28T17:42:37;6.63;;;5.25;;
55220;SDS011;41089;51.448;6.604;2023-02-28T17:48:38;5.57;;;3.45;;
55220;SDS011;41089;51.448;6.604;2023-02-28T17:54:38;6.90;;;3.87;;
55220;SDS011;41089;51.448;6.604;2023-02-28T18:00:40;10.45;;;4.07;;
55220;SDS011;41089;51.448;6.604;2023-02-28T18:06:41;4.75;;;3.58;;
55220;SDS011;41089;51.448;6.604;2023-02-28T18:12:48;6.25;;;4.10;;
55220;SDS011;41089;51.448;6.604;2023-02-28T18:18:49;6.60;;;4.75;;
55220;SDS011;41089;51.448;6.604;2023-02-28T18:24:50;8.07;;;4.97;;
55220;SDS011;41089;51.448;6.604;2023-02-28T18:30:50;10.68;;;5.28;;
55220;SDS011;41089;51.448;6.604;2023-02-28T18:36:52;4.95;;;4.18;;
55220;SDS011;41089;51.448;6.604;2023-02-28T18:42:53;14.73;;;6.68;;
55220;SDS011;41089;51.448;6.604;2023-02-28T18:48:53;12.33;;;7.73;;
55220;SDS011;41089;51.448;6.604;2023-02-28T18:54:53;16.50;;;10.30;;
55220;SDS011;41089;51.448;6.604;2023-02-28T19:00:54;30.13;;;16.47;;
55220;SDS011;41089;51.448;6.604;2023-02-28T19:06:54;25.80;;;13.18;;
55220;SDS011;41089;51.448;6.604;2023-02-28T19:12:55;25.95;;;14.85;;
55220;SDS011;41089;51.448;6.604;2023-02-28T19:18:55;13.73;;;7.87;;
55220;SDS011;41089;51.448;6.604;2023-02-28T19:24:56;10.05;;;7.38;;
55220;SDS011;41089;51.448;6.604;2023-02-28T19:30:57;7.45;;;4.82;;
55220;SDS011;41089;51.448;6.604;2023-02-28T19:36:57;8.03;;;4.37;;
55220;SDS011;41089;51.448;6.604;2023-02-28T19:42:57;8.17;;;5.07;;
55220;SDS011;41089;51.448;6.604;2023-02-28T21:01:18;12.90;;;8.95;;
55220;SDS011;41089;51.448;6.604;2023-02-28T21:07:28;9.02;;;7.07;;
55220;SDS011;41089;51.448;6.604;2023-02-28T21:13:28;9.90;;;6.45;;
55220;SDS011;41089;51.448;6.604;2023-02-28T21:19:29;6.00;;;5.40;;
55220;SDS011;41089;51.448;6.604;2023-02-28T21:25:29;16.63;;;7.23;;
55220;SDS011;41089;51.448;6.604;2023-02-28T21:31:32;13.45;;;7.45;;
55220;SDS011;41089;51.448;6.604;2023-02-28T21:37:35;15.40;;;8.38;;
55220;SDS011;41089;51.448;6.604;2023-02-28T21:43:37;15.77;;;10.10;;
55220;SDS011;41089;51.448;6.604;2023-02-28T21:49:38;14.48;;;10.95;;
55220;SDS011;41089;51.448;6.604;2023-02-28T21:55:38;13.13;;;9.27;;
55220;SDS011;41089;51.448;6.604;2023-02-28T22:01:39;12.63;;;8.75;;
55220;SDS011;41089;51.448;6.604;2023-02-28T22:07:43;22.02;;;12.13;;
55220;SDS011;41089;51.448;6.604;2023-02-28T22:13:43;22.27;;;12.13;;
55220;SDS011;41089;51.448;6.604;2023-02-28T22:19:45;14.93;;;9.00;;
55220;SDS011;41089;51.448;6.604;2023-02-28T22:25:46;10.90;;;7.10;;
55220;SDS011;41089;51.448;6.604;2023-02-28T22:31:49;9.15;;;6.47;;
55220;SDS011;41089;51.448;6.604;2023-02-28T22:37:50;8.65;;;5.70;;
55220;SDS011;41089;51.448;6.604;2023-02-28T22:43:51;7.95;;;6.55;;
55220;SDS011;41089;51.448;6.604;2023-02-28T22:49:53;10.05;;;6.47;;
55220;SDS011;41089;51.448;6.604;2023-02-28T22:55:54;14.97;;;7.40;;
55220;SDS011;41089;51.448;6.604;2023-02-28T23:01:55;10.35;;;7.55;;
55220;SDS011;41089;51.448;6.604;2023-02-28T23:07:55;11.47;;;7.90;;
55220;SDS011;41089;51.448;6.604;2023-02-28T23:13:56;17.80;;;9.88;;
55220;SDS011;41089;51.448;6.604;2023-02-28T23:19:59;15.50;;;9.77;;
55220;SDS011;41089;51.448;6.604;2023-02-28T23:26:04;11.05;;;8.30;;
55220;SDS011;41089;51.448;6.604;2023-02-28T23:32:06;11.27;;;9.25;;
55220;SDS011;41089;51.448;6.604;2023-02-28T23:38:07;13.40;;;9.52;;
55220;SDS011;41089;51.448;6.604;2023-02-28T23:44:08;12.18;;;6.22;;
55220;SDS011;41089;51.448;6.604;2023-02-28T23:50:12;10.02;;;6.70;;
55220;SDS011;41089;51.448;6.604;2023-02-28T23:56:13;7.03;;;5.82;;
